createdAt,value
2022-09-23T00:00:46.188Z,6.15
2022-09-23T00:03:28.880Z,5.88
2022-09-23T00:06:16.318Z,6.00
2022-09-23T00:09:06.178Z,5.72
2022-09-23T00:11:55.190Z,6.35
2022-09-23T00:14:37.885Z,5.88
2022-09-23T00:17:26.176Z,6.78
2022-09-23T00:20:08.814Z,6.95
2022-09-23T00:22:57.951Z,7.18
2022-09-23T00:25:40.313Z,7.40
2022-09-23T00:28:28.883Z,7.70
2022-09-23T00:31:29.822Z,8.50
2022-09-23T00:34:19.931Z,9.85
2022-09-23T00:37:08.825Z,10.00
2022-09-23T00:39:57.796Z,10.02
2022-09-23T00:42:46.904Z,10.35
2022-09-23T00:45:30.050Z,10.60
2022-09-23T00:48:19.807Z,11.52
2022-09-23T00:51:09.813Z,10.85
2022-09-23T00:53:56.260Z,11.70
2022-09-23T00:56:46.822Z,13.43
2022-09-23T00:59:31.193Z,11.60
2022-09-23T01:02:21.959Z,11.57
2022-09-23T01:05:04.183Z,12.05
2022-09-23T01:07:53.896Z,11.93
2022-09-23T01:10:44.362Z,11.45
2022-09-23T01:14:06.890Z,10.80
2022-09-23T01:17:00.206Z,11.70
2022-09-23T01:20:10.889Z,12.30
2022-09-23T01:23:16.189Z,11.50
2022-09-23T01:26:16.873Z,11.60
2022-09-23T01:29:26.788Z,10.10
2022-09-23T01:32:42.929Z,11.15
2022-09-23T01:35:44.989Z,11.27
2022-09-23T01:38:41.888Z,15.40
2022-09-23T01:41:36.193Z,19.05
2022-09-23T01:44:21.908Z,19.98
2022-09-23T01:47:32.884Z,21.98
2022-09-23T01:50:52.241Z,22.67
2022-09-23T01:53:58.171Z,18.63
2022-09-23T01:57:12.876Z,13.90
2022-09-23T02:00:11.886Z,11.15
2022-09-23T02:03:00.431Z,11.07
2022-09-23T02:05:56.876Z,10.98
2022-09-23T02:08:49.191Z,10.48
2022-09-23T02:11:43.882Z,12.55
2022-09-23T02:14:39.156Z,11.50
2022-09-23T02:17:54.890Z,12.30
2022-09-23T02:20:47.899Z,12.65
2022-09-23T02:23:45.462Z,13.48
2022-09-23T02:27:02.898Z,11.43
2022-09-23T02:30:03.877Z,11.30
2022-09-23T02:33:16.509Z,10.35
2022-09-23T02:36:14.886Z,12.60
2022-09-23T02:39:11.978Z,12.00
2022-09-23T02:42:07.173Z,12.65
2022-09-23T02:44:55.895Z,15.60
2022-09-23T02:47:42.322Z,15.93
2022-09-23T02:50:30.912Z,15.88
2022-09-23T02:53:14.307Z,14.77
2022-09-23T02:56:02.922Z,13.77
2022-09-23T02:58:51.773Z,12.88
2022-09-23T03:01:59.919Z,12.05
2022-09-23T03:04:43.593Z,15.85
2022-09-23T03:07:32.901Z,12.98
2022-09-23T03:10:24.162Z,13.40
2022-09-23T03:13:37.904Z,13.18
2022-09-23T03:16:53.239Z,12.48
2022-09-23T03:20:01.896Z,13.20
2022-09-23T03:22:58.146Z,11.70
2022-09-23T03:25:50.904Z,11.02
2022-09-23T03:28:35.174Z,11.23
2022-09-23T03:31:24.912Z,11.82
2022-09-23T03:34:10.261Z,12.00
2022-09-23T03:37:15.863Z,11.48
2022-09-23T03:40:32.979Z,10.80
2022-09-23T03:43:15.530Z,11.30
2022-09-23T03:46:08.951Z,12.52
2022-09-23T03:48:51.097Z,13.32
2022-09-23T03:51:44.393Z,12.63
2022-09-23T03:54:37.791Z,12.43
2022-09-23T03:57:23.055Z,12.18
2022-09-23T04:00:15.982Z,12.60
2022-09-23T04:03:09.538Z,13.10
2022-09-23T04:05:59.169Z,13.63
2022-09-23T04:08:40.773Z,12.70
2022-09-23T04:11:29.187Z,11.98
2022-09-23T04:14:11.873Z,12.43
2022-09-23T04:17:00.154Z,13.18
2022-09-23T04:19:42.894Z,12.85
2022-09-23T04:22:25.133Z,12.02
2022-09-23T04:25:13.881Z,13.20
2022-09-23T04:27:56.068Z,13.13
2022-09-23T04:30:44.889Z,12.82
2022-09-23T04:33:27.355Z,12.60
2022-09-23T04:36:15.863Z,12.27
2022-09-23T04:38:58.514Z,11.48
2022-09-23T04:41:46.874Z,11.45
2022-09-23T04:44:29.400Z,12.07
2022-09-23T04:47:17.793Z,11.82
2022-09-23T04:50:06.857Z,12.45
2022-09-23T04:52:56.200Z,11.77
2022-09-23T04:55:38.097Z,11.73
2022-09-23T04:58:26.901Z,11.82
2022-09-23T05:01:18.367Z,11.73
2022-09-23T05:04:09.902Z,12.70
2022-09-23T05:06:52.092Z,12.13
2022-09-23T05:09:40.898Z,12.23
2022-09-23T05:12:23.044Z,14.90
2022-09-23T05:15:23.858Z,11.65
2022-09-23T05:18:06.151Z,11.68
2022-09-23T05:20:54.864Z,11.55
2022-09-23T05:23:38.010Z,10.98
2022-09-23T05:26:27.875Z,10.15
2022-09-23T05:29:16.862Z,10.00
2022-09-23T05:32:11.772Z,10.25
2022-09-23T05:34:56.239Z,9.68
2022-09-23T05:37:44.774Z,8.68
2022-09-23T05:40:27.094Z,8.70
2022-09-23T05:43:15.806Z,9.07
2022-09-23T05:46:08.122Z,8.73
2022-09-23T05:49:02.180Z,7.97
2022-09-23T05:51:50.130Z,8.55
2022-09-23T05:54:38.781Z,8.43
2022-09-23T05:57:22.114Z,9.25
2022-09-23T06:00:10.865Z,9.38
2022-09-23T06:02:53.112Z,8.95
2022-09-23T06:05:41.885Z,10.13
2022-09-23T06:08:24.940Z,9.13
2022-09-23T06:11:17.910Z,8.40
2022-09-23T06:14:02.325Z,8.90
2022-09-23T06:16:51.880Z,8.57
2022-09-23T06:19:34.156Z,8.93
2022-09-23T06:22:24.873Z,7.80
2022-09-23T06:25:14.198Z,7.45
2022-09-23T06:28:02.930Z,8.65
2022-09-23T06:30:57.782Z,7.82
2022-09-23T06:33:46.949Z,7.68
2022-09-23T06:36:41.389Z,8.85
2022-09-23T06:39:32.769Z,8.15
2022-09-23T06:42:16.968Z,8.07
2022-09-23T06:45:06.869Z,7.90
2022-09-23T06:48:03.889Z,7.78
2022-09-23T06:50:52.709Z,7.93
2022-09-23T06:53:35.940Z,8.77
2022-09-23T06:56:26.179Z,8.07
2022-09-23T06:59:07.879Z,8.80
2022-09-23T07:01:57.367Z,8.15
2022-09-23T07:04:38.797Z,8.23
2022-09-23T07:07:27.699Z,7.97
2022-09-23T07:10:12.957Z,7.95
2022-09-23T07:13:01.140Z,7.93
2022-09-23T07:15:43.983Z,8.68
2022-09-23T07:18:36.995Z,9.32
2022-09-23T07:21:22.941Z,10.75
2022-09-23T07:24:12.451Z,9.85
2022-09-23T07:26:53.948Z,9.23
2022-09-23T07:29:46.095Z,8.75
2022-09-23T07:32:47.603Z,8.35
2022-09-23T07:35:38.180Z,8.93
2022-09-23T07:38:20.967Z,8.13
2022-09-23T07:41:12.187Z,7.65
2022-09-23T07:43:54.875Z,7.90
2022-09-23T07:46:44.825Z,8.57
2022-09-23T07:49:33.779Z,8.40
2022-09-23T07:52:22.803Z,8.30
2022-09-23T07:55:05.265Z,7.70
2022-09-23T07:57:54.122Z,8.50
2022-09-23T08:00:37.249Z,8.25
2022-09-23T08:06:13.252Z,8.20
2022-09-23T08:09:04.943Z,7.68
2022-09-23T08:11:48.202Z,7.65
2022-09-23T08:17:20.208Z,8.57
2022-09-23T08:20:08.930Z,10.05
2022-09-23T08:22:51.542Z,8.63
2022-09-23T08:25:41.401Z,8.63
2022-09-23T08:28:26.313Z,9.05
2022-09-23T08:31:21.794Z,8.45
2022-09-23T08:34:04.682Z,8.07
2022-09-23T08:36:53.933Z,9.05
2022-09-23T08:39:36.133Z,6.40
2022-09-23T08:42:34.862Z,5.05
2022-09-23T08:45:33.462Z,4.10
2022-09-23T08:48:28.784Z,4.22
2022-09-23T08:51:30.476Z,3.80
2022-09-23T08:54:12.888Z,4.70
2022-09-23T08:57:06.217Z,4.20
2022-09-23T08:59:52.935Z,5.13
2022-09-23T09:02:43.214Z,4.60
2022-09-23T09:05:35.884Z,4.97
2022-09-23T09:08:33.164Z,4.82
2022-09-23T09:11:19.894Z,5.63
2022-09-23T09:14:28.349Z,5.32
2022-09-23T09:17:21.883Z,7.25
2022-09-23T09:20:31.856Z,7.22
2022-09-23T09:23:32.867Z,6.65
2022-09-23T09:26:32.178Z,6.97
2022-09-23T09:29:35.702Z,6.90
2022-09-23T09:35:49.884Z,8.50
2022-09-23T09:38:32.895Z,8.88
2022-09-23T09:41:28.935Z,9.55
2022-09-23T09:44:30.065Z,8.98
2022-09-23T09:47:24.952Z,9.50
2022-09-23T09:50:24.970Z,9.90
2022-09-23T09:53:31.883Z,10.65
2022-09-23T09:56:19.956Z,10.52
2022-09-23T09:59:16.814Z,10.15
2022-09-23T10:02:42.119Z,10.05
2022-09-23T10:05:41.821Z,10.27
2022-09-23T10:08:30.116Z,10.30
2022-09-23T10:11:23.753Z,10.30
2022-09-23T10:14:14.207Z,10.85
2022-09-23T10:17:12.811Z,10.27
2022-09-23T10:20:08.801Z,11.32
2022-09-23T10:22:57.847Z,12.15
2022-09-23T10:25:43.095Z,10.85
2022-09-23T10:29:00.896Z,11.18
2022-09-23T10:31:51.827Z,11.68
2022-09-23T10:34:42.529Z,12.32
2022-09-23T10:37:38.896Z,12.48
2022-09-23T10:40:57.430Z,12.73
2022-09-23T10:44:00.937Z,12.30
2022-09-23T10:47:15.671Z,11.53
2022-09-23T10:50:03.818Z,12.30
2022-09-23T10:53:16.303Z,12.13
2022-09-23T10:56:23.826Z,12.15
2022-09-23T10:59:31.325Z,12.48
2022-09-23T11:02:21.825Z,12.77
2022-09-23T11:05:27.375Z,17.40
2022-09-23T11:08:12.845Z,25.08
2022-09-23T11:11:24.148Z,33.85
2022-09-23T11:14:36.881Z,32.08
2022-09-23T11:17:46.128Z,27.55
2022-09-23T11:20:39.945Z,20.70
2022-09-23T11:23:49.459Z,17.45
2022-09-23T11:26:49.380Z,17.38
2022-09-23T11:30:10.546Z,18.55
2022-09-23T11:33:21.849Z,16.42
2022-09-23T11:36:16.864Z,15.93
2022-09-23T11:39:09.126Z,12.80
2022-09-23T11:41:52.777Z,13.25
2022-09-23T11:44:57.859Z,14.05
2022-09-23T11:47:55.767Z,15.00
2022-09-23T11:50:54.862Z,14.57
2022-09-23T11:53:57.402Z,14.73
2022-09-23T11:56:53.866Z,15.13
2022-09-23T12:00:00.762Z,16.35
2022-09-23T12:03:27.652Z,12.55
2022-09-23T12:06:51.768Z,11.35
2022-09-23T12:10:07.984Z,11.85
2022-09-23T12:13:04.158Z,11.57
2022-09-23T12:15:55.871Z,12.48
2022-09-23T12:19:18.808Z,11.65
2022-09-23T12:22:22.839Z,10.65
2022-09-23T12:25:32.742Z,10.27
2022-09-23T12:28:39.192Z,10.50
2022-09-23T12:31:26.789Z,11.05
2022-09-23T12:35:00.734Z,12.75
2022-09-23T12:37:50.817Z,13.38
2022-09-23T12:40:45.734Z,14.90
2022-09-23T12:43:43.894Z,14.98
2022-09-23T12:46:29.280Z,14.30
2022-09-23T12:49:35.906Z,15.00
2022-09-23T12:52:40.257Z,15.75
2022-09-23T12:55:29.797Z,16.63
2022-09-23T12:58:47.305Z,21.27
2022-09-23T13:01:36.981Z,22.20
2022-09-23T13:04:55.805Z,22.50
2022-09-23T13:07:52.805Z,25.10
2022-09-23T13:10:42.248Z,25.67
2022-09-23T13:13:41.768Z,28.77
2022-09-23T13:16:45.837Z,28.25
2022-09-23T13:19:28.218Z,30.63
2022-09-23T13:22:20.791Z,31.30
2022-09-23T13:25:24.241Z,34.73
2022-09-23T13:28:09.832Z,35.53
2022-09-23T13:31:00.380Z,36.92
2022-09-23T13:34:08.842Z,38.10
2022-09-23T13:36:57.881Z,36.05
2022-09-23T13:39:40.288Z,36.63
2022-09-23T13:42:37.773Z,35.60
2022-09-23T13:45:35.943Z,34.33
2022-09-23T13:48:20.326Z,28.98
2022-09-23T13:51:09.919Z,31.10
2022-09-23T13:53:57.080Z,29.95
2022-09-23T13:56:47.831Z,28.30
2022-09-23T13:59:39.914Z,25.73
2022-09-23T14:02:34.063Z,25.98
2022-09-23T14:05:27.478Z,24.88
2022-09-23T14:08:17.801Z,24.48
2022-09-23T14:11:08.228Z,23.08
2022-09-23T14:13:52.852Z,23.00
2022-09-23T14:16:50.063Z,22.98
2022-09-23T14:19:35.318Z,21.13
2022-09-23T14:22:37.778Z,22.30
2022-09-23T14:25:31.917Z,20.17
2022-09-23T14:28:20.078Z,20.77
2022-09-23T14:31:12.011Z,20.00
2022-09-23T14:34:00.243Z,19.95
2022-09-23T14:37:03.385Z,19.90
2022-09-23T14:39:59.287Z,19.20
2022-09-23T14:42:50.254Z,19.40
2022-09-23T14:45:47.949Z,18.77
2022-09-23T14:48:32.147Z,18.02
2022-09-23T14:51:20.931Z,18.98
2022-09-23T14:54:03.178Z,18.35
2022-09-23T14:56:51.981Z,18.23
2022-09-23T14:59:43.604Z,18.73
2022-09-23T15:02:52.899Z,17.48
2022-09-23T15:05:56.836Z,17.95
2022-09-23T15:08:45.240Z,18.63
2022-09-23T15:11:29.833Z,17.90
2022-09-23T15:14:37.319Z,17.20
2022-09-23T15:17:30.925Z,17.58
2022-09-23T15:20:32.917Z,17.48
2022-09-23T15:23:56.049Z,19.48
2022-09-23T15:26:54.899Z,17.23
2022-09-23T15:29:37.247Z,17.10
2022-09-23T15:32:32.899Z,17.60
2022-09-23T15:35:27.780Z,17.90
2022-09-23T15:38:11.840Z,17.60
2022-09-23T15:41:01.996Z,16.88
2022-09-23T15:43:54.782Z,17.38
2022-09-23T15:46:37.680Z,18.88
2022-09-23T15:52:32.120Z,18.05
2022-09-23T15:55:32.858Z,18.80
2022-09-23T15:58:15.277Z,18.75
2022-09-23T16:01:06.028Z,18.55
2022-09-23T16:03:48.157Z,19.95
2022-09-23T16:06:37.856Z,19.08
2022-09-23T16:09:26.221Z,19.05
2022-09-23T16:12:09.832Z,19.95
2022-09-23T16:14:58.224Z,19.75
2022-09-23T16:17:41.790Z,20.75
2022-09-23T16:20:31.224Z,20.00
2022-09-23T16:23:16.999Z,19.25
2022-09-23T16:26:05.232Z,21.85
2022-09-23T16:28:47.873Z,20.70
2022-09-23T16:31:37.343Z,21.85
2022-09-23T16:34:28.921Z,21.70
2022-09-23T16:37:11.776Z,21.33
2022-09-23T16:40:00.884Z,23.05
2022-09-23T16:42:43.295Z,22.30
2022-09-23T16:45:31.935Z,21.50
2022-09-23T16:48:14.762Z,22.23
2022-09-23T16:51:03.873Z,21.77
2022-09-23T16:53:52.949Z,22.75
2022-09-23T16:56:42.860Z,22.23
2022-09-23T16:59:51.865Z,21.95
2022-09-23T17:02:59.808Z,22.15
2022-09-23T17:05:45.379Z,22.02
2022-09-23T17:08:35.946Z,22.67
2022-09-23T17:11:29.131Z,23.17
2022-09-23T17:14:21.929Z,22.73
2022-09-23T17:17:06.951Z,23.38
2022-09-23T17:19:49.365Z,22.90
2022-09-23T17:22:37.933Z,22.65
2022-09-23T17:25:26.523Z,24.00
2022-09-23T17:28:09.915Z,23.35
2022-09-23T17:31:09.754Z,23.88
2022-09-23T17:34:00.873Z,24.10
2022-09-23T17:36:43.319Z,25.60
2022-09-23T17:39:32.419Z,25.63
2022-09-23T17:42:15.811Z,24.83
2022-09-23T17:45:06.519Z,25.90
2022-09-23T17:47:55.949Z,25.20
2022-09-23T17:50:45.322Z,25.42
2022-09-23T17:53:27.393Z,26.17
2022-09-23T17:56:20.950Z,27.25
2022-09-23T17:59:07.298Z,27.40
2022-09-23T18:01:57.258Z,28.10
2022-09-23T18:04:40.152Z,28.00
2022-09-23T18:07:31.569Z,26.33
2022-09-23T18:10:15.309Z,28.60
2022-09-23T18:13:03.859Z,28.30
2022-09-23T18:15:48.309Z,28.58
2022-09-23T18:18:37.865Z,29.30
2022-09-23T18:21:20.816Z,30.95
2022-09-23T18:24:31.180Z,29.63
2022-09-23T18:27:12.175Z,31.17
2022-09-23T18:30:00.940Z,31.50
2022-09-23T18:32:43.135Z,33.50
2022-09-23T18:35:31.865Z,31.15
2022-09-23T18:38:14.485Z,32.58
2022-09-23T18:43:48.710Z,33.28
2022-09-23T18:46:38.855Z,32.75
2022-09-23T18:49:45.757Z,31.70
2022-09-23T18:52:41.967Z,32.92
2022-09-23T18:55:30.754Z,30.40
2022-09-23T18:58:20.856Z,34.03
2022-09-23T19:01:14.884Z,31.75
2022-09-23T19:04:10.168Z,32.35
2022-09-23T19:06:58.863Z,30.40
2022-09-23T19:09:41.389Z,31.75
2022-09-23T19:12:29.848Z,33.40
2022-09-23T19:15:13.292Z,33.15
2022-09-23T19:18:02.860Z,31.35
2022-09-23T19:20:45.709Z,33.58
2022-09-23T19:23:42.845Z,33.47
2022-09-23T19:26:30.500Z,32.17
2022-09-23T19:29:29.877Z,32.35
2022-09-23T19:32:12.322Z,32.17
2022-09-23T19:35:00.863Z,31.13
2022-09-23T19:37:43.361Z,31.77
2022-09-23T19:40:31.910Z,30.10
2022-09-23T19:43:21.857Z,30.70
2022-09-23T19:46:14.799Z,30.73
2022-09-23T19:48:57.202Z,30.90
2022-09-23T19:51:46.754Z,29.08
2022-09-23T19:54:29.302Z,29.85
2022-09-23T19:57:18.221Z,26.95
2022-09-23T20:00:00.573Z,28.88
2022-09-23T20:02:54.843Z,27.80
2022-09-23T20:05:37.298Z,27.88
2022-09-23T20:08:25.862Z,27.65
2022-09-23T20:11:13.518Z,25.92
2022-09-23T20:14:08.875Z,26.48
2022-09-23T20:16:51.310Z,27.60
2022-09-23T20:19:39.746Z,27.05
2022-09-23T20:22:39.887Z,26.98
2022-09-23T20:25:21.990Z,27.35
2022-09-23T20:28:10.863Z,27.95
2022-09-23T20:30:59.795Z,29.83
2022-09-23T20:33:55.827Z,28.83
2022-09-23T20:36:38.245Z,27.35
2022-09-23T20:39:26.735Z,29.30
2022-09-23T20:42:16.839Z,30.27
2022-09-23T20:44:59.125Z,28.60
2022-09-23T20:47:47.767Z,31.33
2022-09-23T20:50:30.118Z,29.35
2022-09-23T20:53:18.908Z,29.67
2022-09-23T20:56:03.142Z,29.33
2022-09-23T20:58:51.838Z,29.45
2022-09-23T21:01:40.809Z,29.75
2022-09-23T21:04:30.127Z,28.98
2022-09-23T21:07:11.780Z,31.42
2022-09-23T21:10:02.972Z,31.35
2022-09-23T21:12:44.834Z,33.35
2022-09-23T21:15:33.857Z,31.83
2022-09-23T21:18:21.739Z,33.35
2022-09-23T21:21:13.135Z,33.70
2022-09-23T21:24:23.676Z,35.10
2022-09-23T21:27:11.749Z,39.60
2022-09-23T21:30:00.832Z,37.95
2022-09-23T21:32:49.867Z,42.67
2022-09-23T21:35:38.929Z,40.95
2022-09-23T21:38:21.877Z,42.08
2022-09-23T21:41:13.155Z,42.22
2022-09-23T21:43:56.772Z,40.28
2022-09-23T21:46:45.917Z,40.47
2022-09-23T21:49:34.862Z,39.72
2022-09-23T21:52:23.872Z,40.30
2022-09-23T21:55:06.152Z,41.30
2022-09-23T21:57:54.758Z,44.97
2022-09-23T22:00:43.939Z,49.17
2022-09-23T22:03:26.760Z,54.67
2022-09-23T22:06:27.890Z,54.30
2022-09-23T22:09:24.858Z,57.08
2022-09-23T22:12:08.882Z,57.22
2022-09-23T22:14:59.773Z,57.55
2022-09-23T22:17:42.139Z,58.40
2022-09-23T22:20:30.854Z,57.13
2022-09-23T22:23:13.263Z,57.22
2022-09-23T22:26:05.772Z,57.63
2022-09-23T22:29:06.308Z,58.80
2022-09-23T22:32:12.892Z,59.53
2022-09-23T22:35:01.299Z,61.17
2022-09-23T22:37:44.776Z,61.83
2022-09-23T22:40:34.092Z,61.25
2022-09-23T22:43:16.197Z,60.35
2022-09-23T22:46:04.845Z,57.50
2022-09-23T22:48:47.396Z,58.22
2022-09-23T22:51:35.764Z,58.40
2022-09-23T22:54:19.413Z,60.00
2022-09-23T22:57:09.826Z,58.60
2022-09-23T22:59:52.487Z,58.60
2022-09-23T23:02:42.843Z,57.42
2022-09-23T23:05:31.852Z,57.90
2022-09-23T23:08:24.755Z,58.28
2022-09-23T23:11:12.463Z,56.35
2022-09-23T23:13:54.755Z,56.63
2022-09-23T23:16:43.746Z,56.05
2022-09-23T23:19:27.056Z,55.50
2022-09-23T23:22:15.730Z,57.42
2022-09-23T23:24:58.124Z,57.83
2022-09-23T23:27:46.744Z,60.47
2022-09-23T23:30:30.146Z,57.25
2022-09-23T23:33:18.848Z,61.17
2022-09-23T23:36:01.105Z,59.15
2022-09-23T23:38:51.839Z,60.15
2022-09-23T23:41:34.268Z,57.80
2022-09-23T23:44:22.762Z,57.13
2022-09-23T23:47:05.521Z,55.75
2022-09-23T23:49:54.771Z,56.58
2022-09-23T23:52:37.143Z,55.35
2022-09-23T23:55:25.890Z,54.72
2022-09-23T23:58:08.154Z,54.10
